Flight Track Log - Related Links

Times and Time Zones

All times are in EDT time to prevent confusion due to time zone crossing. See the SWA407 flight status page for this flight to view local times or setup timezone preferences in your user account.

Time Position Orientation Groundspeed Altitude Reporting Facility
EDT Latitude Longitude Course Direction KTS MPH feet Rate Location/Type
Fri 01:15:07 PM 36.1333 -86.6500 39° Northeast 153 176 1,700  Level Nashville TRACON
Fri 01:15:43 PM 36.1500 -86.6333 39° Northeast 180 207 2,800 2,400 Climbing Nashville TRACON
Fri 01:16:37 PM 36.1667 -86.5667 73° East 252 290 5,300 3,211 Climbing Nashville TRACON
Fri 01:17:37 PM 36.1000 -86.5333 158° South 315 362 8,900 3,612 Climbing Nashville TRACON
Fri 01:18:20 PM 36.0283 -86.5250 175° South 312 359 11,500 3,146 Climbing Memphis Center
Fri 01:19:20 PM 35.9381 -86.5036 169° South 340 391 14,300 1,750 Climbing Memphis Center
Fri 01:20:20 PM 35.8353 -86.4828 171° South 356 410 15,000 1,400 Climbing Memphis Center
Fri 01:21:20 PM 35.7303 -86.4622 171° South 374 430 17,100 2,150 Climbing Memphis Center
Fri 01:22:20 PM 35.6317 -86.4414 170° South 394 453 19,300 2,350 Climbing Memphis Center
Fri 01:23:20 PM 35.5100 -86.4164 171° South 418 481 21,800 2,120 Climbing Memphis Center
Fri 01:25:24 PM 35.2631 -86.3231 163° South 446 513 25,800 1,836 Climbing Atlanta Center
Fri 01:26:23 PM 35.1453 -86.2614 157° South 464 534 27,400 1,714 Climbing Atlanta Center
Fri 01:27:23 PM 35.0214 -86.1919 155° Southeast 474 545 29,200 1,686 Climbing Atlanta Center
Fri 01:28:24 PM 34.8931 -86.1356 160° South 484 557 30,800 1,800 Climbing Atlanta Center
Fri 01:29:23 PM 34.7583 -86.0767 160° South 499 574 32,800 1,950 Climbing Atlanta Center
Fri 01:30:24 PM 34.6256 -86.0203 161° South 504 580 34,700 1,950 Climbing Atlanta Center
Fri 01:31:23 PM 34.4950 -85.9669 161° South 504 580 36,700 1,150 Climbing Atlanta Center
Fri 01:32:24 PM 34.3728 -85.9136 160° South 491 565 37,000 150 Climbing Atlanta Center
Fri 01:33:23 PM 34.2503 -85.8608 160° South 476 548 37,000  Level Atlanta Center
Fri 01:34:23 PM 34.1281 -85.8106 161° South 471 542 37,000  Level Atlanta Center
Fri 01:35:23 PM 34.0181 -85.7706 163° South 460 529 37,000  Level Atlanta Center
Fri 01:36:23 PM 33.8956 -85.7206 161° South 460 529 37,000  Level Atlanta Center
Fri 01:37:23 PM 33.7708 -85.6681 161° South 465 535 37,000  Level Atlanta Center
Fri 01:38:24 PM 33.6506 -85.6183 161° South 465 535 37,000  Level Atlanta Center
Fri 01:39:24 PM 33.5281 -85.5664 161° South 460 529 37,000  Level Atlanta Center
Fri 01:40:25 PM 33.4056 -85.5169 161° South 460 529 37,000  Level Atlanta Center
Fri 01:41:24 PM 33.2850 -85.4678 161° South 460 529 37,000  Level Atlanta Center
Fri 01:42:23 PM 33.1625 -85.4186 161° South 460 529 37,000  Level Atlanta Center
Fri 01:43:23 PM 33.0294 -85.3544 158° South 460 529 37,000  Level Atlanta Center
Fri 01:44:23 PM 32.9089 -85.3056 161° South 469 540 37,000  Level Atlanta Center
Fri 01:45:23 PM 32.7822 -85.2544 161° South 469 540 37,000  Level Atlanta Center
Fri 01:46:23 PM 32.6617 -85.2033 160° South 469 540 37,000  Level Atlanta Center
Fri 01:47:23 PM 32.5369 -85.1550 162° South 457 526 37,000  Level Atlanta Center
Fri 01:48:23 PM 32.4203 -85.1067 161° South 462 532 37,000  Level Atlanta Center
Fri 01:49:24 PM 32.2975 -85.0586 162° South 462 532 37,000  Level Atlanta Center
Fri 01:50:24 PM 32.1769 -85.0156 163° South 457 526 37,000  Level Atlanta Center
Fri 01:51:24 PM 32.0583 -84.9678 161° South 457 526 37,000  Level Atlanta Center
Fri 01:52:23 PM 31.9397 -84.9200 161° South 457 526 37,000  Level Atlanta Center
Fri 01:53:23 PM 31.8211 -84.8722 161° South 457 526 37,000  Level Atlanta Center
Fri 01:55:40 PM 31.5639 -84.7700 161° South 451 519 37,000  Level Jacksonville Center
Fri 01:56:40 PM 31.4475 -84.7239 161° South 446 513 37,000  Level Jacksonville Center
Fri 01:57:40 PM 31.3294 -84.6753 161° South 441 507 37,000  Level Jacksonville Center
Fri 01:58:40 PM 31.2150 -84.6319 162° South 441 507 37,000  Level Jacksonville Center
Fri 01:59:40 PM 31.0967 -84.5861 162° South 441 507 37,000  Level Jacksonville Center
Fri 02:00:40 PM 30.9825 -84.5403 161° South 441 507 37,000  Level Jacksonville Center
Fri 02:01:40 PM 30.8619 -84.4947 162° South 441 507 37,000  Level Jacksonville Center
Fri 02:02:40 PM 30.7456 -84.4467 160° South 441 507 37,000  Level Jacksonville Center
Fri 02:03:40 PM 30.6314 -84.4064 163° South 441 507 37,000  Level Jacksonville Center
Fri 02:04:40 PM 30.5211 -84.3514 157° South 441 507 37,000  Level Jacksonville Center
Fri 02:05:40 PM 30.4114 -84.2825 152° Southeast 441 507 37,000  Level Jacksonville Center
Fri 02:06:40 PM 30.3097 -84.2111 149° Southeast 435 501 37,000  Level Jacksonville Center
Fri 02:07:40 PM 30.1958 -84.1375 151° Southeast 429 494 37,000  Level Jacksonville Center
Fri 02:08:40 PM 30.0919 -84.0714 151° Southeast 429 494 37,000  Level Jacksonville Center
Fri 02:09:40 PM 29.9881 -84.0028 150° Southeast 429 494 37,000  Level Jacksonville Center
Fri 02:10:40 PM 29.8844 -83.9369 151° Southeast 429 494 37,000  Level Jacksonville Center
Fri 02:11:40 PM 29.7825 -83.8714 151° Southeast 429 494 37,000  Level Jacksonville Center
Fri 02:12:40 PM 29.6828 -83.8081 151° Southeast 424 488 37,000 -200 Level Jacksonville Center
Fri 02:13:40 PM 29.5853 -83.7428 150° Southeast 412 474 36,600 -1,600 Descending Jacksonville Center
Fri 02:14:40 PM 29.4853 -83.6800 151° Southeast 412 474 33,800 -2,850 Descending Jacksonville Center
Fri 02:15:40 PM 29.3875 -83.6147 150° Southeast 412 474 30,900 -2,650 Descending Jacksonville Center
Fri 02:16:40 PM 29.2897 -83.5544 152° Southeast 412 474 28,500 -1,950 Descending Jacksonville Center
Fri 02:17:40 PM 29.1919 -83.4919 151° Southeast 412 474 27,000 -1,200 Descending Jacksonville Center
Fri 02:18:40 PM 29.1006 -83.4344 151° Southeast 396 456 26,100 -950 Descending Jacksonville Center
Fri 02:19:40 PM 29.0089 -83.3744 150° Southeast 385 443 25,100 -1,000 Descending Jacksonville Center
Fri 02:20:40 PM 28.9131 -83.3147 151° Southeast 385 443 24,100 -1,250 Descending Jacksonville Center
Fri 02:21:40 PM 28.8194 -83.2553 151° Southeast 385 443 22,600 -1,900 Descending Jacksonville Center
Fri 02:22:40 PM 28.7236 -83.1933 150° Southeast 391 450 20,300 -2,255 Descending Jacksonville Center
Fri 02:24:09 PM 28.5833 -83.1167 154° Southeast 374 430 17,000 -2,215 Descending Tampa TRACON
Fri 02:25:09 PM 28.5000 -83.0500 145° Southeast 366 421 14,800 -2,150 Descending Tampa TRACON
Fri 02:26:09 PM 28.4167 -83.0000 152° Southeast 359 413 12,700 -1,850 Descending Tampa TRACON
Fri 02:27:09 PM 28.3333 -82.9500 152° Southeast 348 400 11,100 -1,350 Descending Tampa TRACON
Fri 02:28:09 PM 28.2500 -82.9000 152° Southeast 320 368 10,000 -1,200 Descending Tampa TRACON
Fri 02:29:09 PM 28.1833 -82.8500 147° Southeast 302 348 8,700 -1,350 Descending Tampa TRACON
Fri 02:30:09 PM 28.1333 -82.7667 124° Southeast 296 341 7,300 -1,350 Descending Tampa TRACON
Fri 02:31:09 PM 28.0833 -82.7000 130° Southeast 293 337 6,000 -1,150 Descending Tampa TRACON
Fri 02:32:09 PM 28.0167 -82.6333 139° Southeast 280 322 5,000 -500 Descending Tampa TRACON
Fri 02:33:09 PM 27.9667 -82.6167 164° South 219 252 5,000 -700 Level Tampa TRACON
Fri 02:34:09 PM 27.9000 -82.6167 180° South 210 242 3,600 -1,200 Descending Tampa TRACON
Fri 02:35:09 PM 27.8500 -82.6167 180° South 211 243 2,600 -600 Descending Tampa TRACON
Fri 02:36:09 PM 27.8500 -82.5667 90° East 185 213 2,400 -650 Descending Tampa TRACON
Fri 02:37:09 PM 27.9000 -82.5500 16° North 153 176 1,300 -900 Descending Tampa TRACON
Fri 02:38:09 PM 27.9333 -82.5500 360° North 136 157 600 -700 Descending Tampa TRACON
Fri 02:40:00 PM 27.9755 -82.5332 352° North  Level Estimated
Fri 02:47:00 PM 27.9755 -82.5332 161° South  Level Estimated
Fri 02:48:00 PM 27.9755 -82.5332 161° South  Level Estimated

Login

Don't have an account? Register now (free) for customized features, flight alerts, and more!